sensor_id;sensor_type;location;lat;lon;timestamp;pressure;altitude;pressure_sealevel;temperature;humidity
47154;BME280;32907;41.412;2.164;2022-09-29T00:01:10;99439.00;;;24.59;46.24
47154;BME280;32907;41.412;2.164;2022-09-29T00:03:37;99420.53;;;24.56;46.12
47154;BME280;32907;41.412;2.164;2022-09-29T00:06:12;99391.38;;;24.36;45.87
47154;BME280;32907;41.412;2.164;2022-09-29T00:08:40;99426.91;;;24.60;45.94
47154;BME280;32907;41.412;2.164;2022-09-29T00:11:09;99464.38;;;24.84;46.22
47154;BME280;32907;41.412;2.164;2022-09-29T00:13:38;99474.47;;;24.80;46.64
47154;BME280;32907;41.412;2.164;2022-09-29T00:16:06;99476.16;;;24.84;46.61
47154;BME280;32907;41.412;2.164;2022-09-29T00:18:34;99476.94;;;24.85;46.51
47154;BME280;32907;41.412;2.164;2022-09-29T00:21:03;99467.91;;;24.84;46.51
47154;BME280;32907;41.412;2.164;2022-09-29T00:23:33;99466.34;;;24.83;46.36
47154;BME280;32907;41.412;2.164;2022-09-29T00:26:12;99458.91;;;24.84;46.99
47154;BME280;32907;41.412;2.164;2022-09-29T00:28:45;99439.50;;;24.77;46.55
47154;BME280;32907;41.412;2.164;2022-09-29T00:31:14;99444.75;;;24.82;47.09
47154;BME280;32907;41.412;2.164;2022-09-29T00:33:42;99454.56;;;24.83;46.72
47154;BME280;32907;41.412;2.164;2022-09-29T00:36:14;99458.09;;;24.83;46.79
47154;BME280;32907;41.412;2.164;2022-09-29T00:38:45;99449.09;;;24.83;46.35
47154;BME280;32907;41.412;2.164;2022-09-29T00:41:20;99435.72;;;24.81;47.77
47154;BME280;32907;41.412;2.164;2022-09-29T00:44:05;99366.81;;;24.39;47.11
47154;BME280;32907;41.412;2.164;2022-09-29T00:54:42;99420.66;;;24.75;47.35
47154;BME280;32907;41.412;2.164;2022-09-29T00:57:15;99408.16;;;24.62;47.05
47154;BME280;32907;41.412;2.164;2022-09-29T01:02:21;99407.91;;;24.67;47.05
47154;BME280;32907;41.412;2.164;2022-09-29T01:04:50;99413.19;;;24.60;47.25
47154;BME280;32907;41.412;2.164;2022-09-29T01:07:22;99432.78;;;24.74;47.60
47154;BME280;32907;41.412;2.164;2022-09-29T01:09:51;99425.94;;;24.68;47.07
47154;BME280;32907;41.412;2.164;2022-09-29T01:12:21;99410.91;;;24.62;47.58
47154;BME280;32907;41.412;2.164;2022-09-29T01:14:52;99413.19;;;24.60;47.16
47154;BME280;32907;41.412;2.164;2022-09-29T01:17:20;99432.78;;;24.74;47.38
47154;BME280;32907;41.412;2.164;2022-09-29T01:25:42;99426.50;;;24.74;48.04
47154;BME280;32907;41.412;2.164;2022-09-29T01:34:06;99415.53;;;24.74;47.51
47154;BME280;32907;41.412;2.164;2022-09-29T01:37:17;99397.91;;;24.59;47.46
47154;BME280;32907;41.412;2.164;2022-09-29T01:42:51;99405.28;;;24.71;47.43
47154;BME280;32907;41.412;2.164;2022-09-29T01:45:32;99390.13;;;24.61;47.69
47154;BME280;32907;41.412;2.164;2022-09-29T01:48:18;99378.63;;;24.55;47.80
47154;BME280;32907;41.412;2.164;2022-09-29T01:50:53;99353.56;;;24.41;47.48
47154;BME280;32907;41.412;2.164;2022-09-29T01:53:40;99367.19;;;24.53;47.51
47154;BME280;32907;41.412;2.164;2022-09-29T01:56:14;99332.00;;;24.40;48.23
47154;BME280;32907;41.412;2.164;2022-09-29T01:58:47;99361.22;;;24.64;47.59
47154;BME280;32907;41.412;2.164;2022-09-29T02:01:21;99330.41;;;24.39;47.63
47154;BME280;32907;41.412;2.164;2022-09-29T02:06:21;99341.22;;;24.47;47.64
47154;BME280;32907;41.412;2.164;2022-09-29T02:08:53;99360.09;;;24.65;47.20
47154;BME280;32907;41.412;2.164;2022-09-29T02:11:21;99329.00;;;24.45;47.48
47154;BME280;32907;41.412;2.164;2022-09-29T02:16:28;99364.06;;;24.67;47.67
47154;BME280;32907;41.412;2.164;2022-09-29T02:19:05;99336.72;;;24.55;47.54
47154;BME280;32907;41.412;2.164;2022-09-29T02:21:34;99347.78;;;24.59;47.20
47154;BME280;32907;41.412;2.164;2022-09-29T02:24:02;99352.66;;;24.65;47.20
47154;BME280;32907;41.412;2.164;2022-09-29T02:26:32;99313.69;;;24.44;47.37
47154;BME280;32907;41.412;2.164;2022-09-29T02:29:04;99338.50;;;24.63;47.42
47154;BME280;32907;41.412;2.164;2022-09-29T02:31:35;99256.06;;;24.12;47.58
47154;BME280;32907;41.412;2.164;2022-09-29T02:34:05;99327.34;;;24.56;47.76
47154;BME280;32907;41.412;2.164;2022-09-29T02:42:32;99333.72;;;24.60;47.64
47154;BME280;32907;41.412;2.164;2022-09-29T02:47:46;99329.81;;;24.61;47.56
47154;BME280;32907;41.412;2.164;2022-09-29T02:58:29;99300.91;;;24.48;47.62
47154;BME280;32907;41.412;2.164;2022-09-29T03:00:59;99304.16;;;24.53;47.60
47154;BME280;32907;41.412;2.164;2022-09-29T03:03:27;99316.47;;;24.60;47.77
47154;BME280;32907;41.412;2.164;2022-09-29T03:05:55;99272.31;;;24.33;47.65
47154;BME280;32907;41.412;2.164;2022-09-29T03:08:23;99308.84;;;24.53;47.78
47154;BME280;32907;41.412;2.164;2022-09-29T03:10:50;99295.78;;;24.46;47.92
47154;BME280;32907;41.412;2.164;2022-09-29T03:13:19;99285.84;;;24.42;47.91
47154;BME280;32907;41.412;2.164;2022-09-29T03:15:47;99311.78;;;24.60;47.55
47154;BME280;32907;41.412;2.164;2022-09-29T03:18:15;99295.41;;;24.48;47.67
47154;BME280;32907;41.412;2.164;2022-09-29T03:20:42;99317.38;;;24.64;47.41
47154;BME280;32907;41.412;2.164;2022-09-29T03:23:10;99247.44;;;24.26;47.78
47154;BME280;32907;41.412;2.164;2022-09-29T03:25:38;99297.41;;;24.63;47.46
47154;BME280;32907;41.412;2.164;2022-09-29T03:28:05;99251.75;;;24.39;47.43
47154;BME280;32907;41.412;2.164;2022-09-29T03:30:33;99292.72;;;24.64;47.24
47154;BME280;32907;41.412;2.164;2022-09-29T03:33:01;99287.41;;;24.55;47.38
47154;BME280;32907;41.412;2.164;2022-09-29T03:35:28;99285.16;;;24.61;47.36
47154;BME280;32907;41.412;2.164;2022-09-29T03:37:57;99271.56;;;24.48;47.52
47154;BME280;32907;41.412;2.164;2022-09-29T03:40:26;99234.09;;;24.24;47.53
47154;BME280;32907;41.412;2.164;2022-09-29T03:42:54;99235.56;;;24.22;47.11
47154;BME280;32907;41.412;2.164;2022-09-29T03:45:22;99274.03;;;24.53;47.30
47154;BME280;32907;41.412;2.164;2022-09-29T03:47:49;99296.94;;;24.61;47.20
47154;BME280;32907;41.412;2.164;2022-09-29T03:50:17;99301.97;;;24.59;47.42
47154;BME280;32907;41.412;2.164;2022-09-29T03:52:45;99274.91;;;24.42;47.43
47154;BME280;32907;41.412;2.164;2022-09-29T03:55:13;99286.25;;;24.56;47.44
47154;BME280;32907;41.412;2.164;2022-09-29T03:57:40;99286.25;;;24.56;47.07
47154;BME280;32907;41.412;2.164;2022-09-29T04:00:09;99230.81;;;24.19;46.92
47154;BME280;32907;41.412;2.164;2022-09-29T04:02:37;99253.69;;;24.39;45.60
47154;BME280;32907;41.412;2.164;2022-09-29T04:05:04;99286.13;;;24.52;45.13
47154;BME280;32907;41.412;2.164;2022-09-29T04:07:32;99272.00;;;24.50;44.19
47154;BME280;32907;41.412;2.164;2022-09-29T04:10:00;99280.13;;;24.47;44.51
47154;BME280;32907;41.412;2.164;2022-09-29T04:12:27;99251.88;;;24.31;43.67
47154;BME280;32907;41.412;2.164;2022-09-29T04:14:55;99265.78;;;24.38;42.41
47154;BME280;32907;41.412;2.164;2022-09-29T04:17:23;99278.78;;;24.41;42.37
47154;BME280;32907;41.412;2.164;2022-09-29T04:19:51;99273.66;;;24.39;42.01
47154;BME280;32907;41.412;2.164;2022-09-29T04:22:19;99277.53;;;24.38;41.70
47154;BME280;32907;41.412;2.164;2022-09-29T04:24:50;99275.38;;;24.32;41.57
47154;BME280;32907;41.412;2.164;2022-09-29T04:27:18;99287.69;;;24.38;40.94
47154;BME280;32907;41.412;2.164;2022-09-29T04:29:46;99280.63;;;24.37;40.47
47154;BME280;32907;41.412;2.164;2022-09-29T04:32:13;99262.44;;;24.16;39.96
47154;BME280;32907;41.412;2.164;2022-09-29T04:34:41;99239.22;;;23.98;39.92
47154;BME280;32907;41.412;2.164;2022-09-29T04:37:09;99260.38;;;24.13;39.80
47154;BME280;32907;41.412;2.164;2022-09-29T04:39:37;99246.97;;;24.08;40.05
47154;BME280;32907;41.412;2.164;2022-09-29T04:42:05;99206.69;;;23.81;40.03
47154;BME280;32907;41.412;2.164;2022-09-29T04:44:33;99269.91;;;24.32;39.82
47154;BME280;32907;41.412;2.164;2022-09-29T04:47:00;99264.66;;;24.26;39.80
47154;BME280;32907;41.412;2.164;2022-09-29T04:49:28;99229.53;;;24.00;39.36
47154;BME280;32907;41.412;2.164;2022-09-29T04:51:56;99269.28;;;24.22;38.76
47154;BME280;32907;41.412;2.164;2022-09-29T04:54:24;99276.22;;;24.20;38.99
47154;BME280;32907;41.412;2.164;2022-09-29T04:56:51;99230.56;;;23.96;38.83
47154;BME280;32907;41.412;2.164;2022-09-29T04:59:19;99226.44;;;24.02;38.32
47154;BME280;32907;41.412;2.164;2022-09-29T05:01:48;99266.19;;;24.24;38.07
47154;BME280;32907;41.412;2.164;2022-09-29T05:04:15;99222.16;;;23.89;38.40
47154;BME280;32907;41.412;2.164;2022-09-29T05:06:44;99272.34;;;24.21;38.42
47154;BME280;32907;41.412;2.164;2022-09-29T05:09:12;99262.59;;;24.08;38.44
47154;BME280;32907;41.412;2.164;2022-09-29T05:11:40;99240.50;;;24.00;38.44
47154;BME280;32907;41.412;2.164;2022-09-29T05:14:09;99264.75;;;24.14;38.38
47154;BME280;32907;41.412;2.164;2022-09-29T05:16:43;99290.34;;;24.22;37.79
47154;BME280;32907;41.412;2.164;2022-09-29T05:19:11;99250.25;;;23.86;36.95
47154;BME280;32907;41.412;2.164;2022-09-29T05:21:39;99293.72;;;24.15;37.75
47154;BME280;32907;41.412;2.164;2022-09-29T05:24:06;99236.78;;;23.81;37.63
47154;BME280;32907;41.412;2.164;2022-09-29T05:26:34;99227.13;;;23.71;38.04
47154;BME280;32907;41.412;2.164;2022-09-29T05:29:02;99278.91;;;24.04;38.28
47154;BME280;32907;41.412;2.164;2022-09-29T05:31:30;99298.13;;;24.20;38.13
47154;BME280;32907;41.412;2.164;2022-09-29T05:33:58;99295.34;;;24.04;38.35
47154;BME280;32907;41.412;2.164;2022-09-29T05:36:25;99319.69;;;24.21;38.42
47154;BME280;32907;41.412;2.164;2022-09-29T05:38:53;99283.72;;;24.07;38.49
47154;BME280;32907;41.412;2.164;2022-09-29T05:41:22;99307.06;;;24.17;38.65
47154;BME280;32907;41.412;2.164;2022-09-29T05:43:50;99306.13;;;24.25;38.60
47154;BME280;32907;41.412;2.164;2022-09-29T05:46:20;99297.97;;;24.28;39.04
47154;BME280;32907;41.412;2.164;2022-09-29T05:48:49;99206.03;;;23.71;39.62
47154;BME280;32907;41.412;2.164;2022-09-29T05:51:22;99294.09;;;24.29;39.23
47154;BME280;32907;41.412;2.164;2022-09-29T05:53:50;99296.25;;;24.36;39.23
47154;BME280;32907;41.412;2.164;2022-09-29T05:56:23;99279.03;;;24.36;39.58
47154;BME280;32907;41.412;2.164;2022-09-29T05:58:52;99256.06;;;24.12;39.15
47154;BME280;32907;41.412;2.164;2022-09-29T06:01:23;99262.38;;;24.28;39.04
47154;BME280;32907;41.412;2.164;2022-09-29T06:03:55;99267.38;;;24.39;38.90
47154;BME280;32907;41.412;2.164;2022-09-29T06:06:25;99276.06;;;24.41;38.95
47154;BME280;32907;41.412;2.164;2022-09-29T06:08:54;99278.00;;;24.40;39.74
47154;BME280;32907;41.412;2.164;2022-09-29T06:11:26;99251.63;;;24.36;39.53
47154;BME280;32907;41.412;2.164;2022-09-29T06:13:54;99263.59;;;24.43;39.28
47154;BME280;32907;41.412;2.164;2022-09-29T06:16:25;99248.53;;;24.37;38.88
47154;BME280;32907;41.412;2.164;2022-09-29T06:18:54;99179.25;;;23.93;38.47
47154;BME280;32907;41.412;2.164;2022-09-29T06:21:24;99261.91;;;24.39;38.38
47154;BME280;32907;41.412;2.164;2022-09-29T06:23:53;99186.13;;;23.87;38.95
47154;BME280;32907;41.412;2.164;2022-09-29T06:26:23;99266.25;;;24.40;38.96
47154;BME280;32907;41.412;2.164;2022-09-29T06:28:52;99227.63;;;24.17;38.70
47154;BME280;32907;41.412;2.164;2022-09-29T06:31:22;99215.09;;;24.16;38.70
47154;BME280;32907;41.412;2.164;2022-09-29T06:33:51;99255.59;;;24.38;38.88
47154;BME280;32907;41.412;2.164;2022-09-29T06:36:30;99258.34;;;24.38;38.48
47154;BME280;32907;41.412;2.164;2022-09-29T06:39:17;99258.28;;;24.35;38.29
47154;BME280;32907;41.412;2.164;2022-09-29T06:41:46;99264.91;;;24.34;38.33
47154;BME280;32907;41.412;2.164;2022-09-29T06:44:25;99280.53;;;24.33;38.80
47154;BME280;32907;41.412;2.164;2022-09-29T06:46:53;99254.13;;;24.13;38.53
47154;BME280;32907;41.412;2.164;2022-09-29T06:49:22;99279.03;;;24.36;38.72
47154;BME280;32907;41.412;2.164;2022-09-29T06:51:50;99276.28;;;24.36;38.36
47154;BME280;32907;41.412;2.164;2022-09-29T06:54:20;99277.53;;;24.38;38.39
47154;BME280;32907;41.412;2.164;2022-09-29T06:56:49;99284.16;;;24.37;38.35
47154;BME280;32907;41.412;2.164;2022-09-29T06:59:17;99282.94;;;24.35;38.50
47154;BME280;32907;41.412;2.164;2022-09-29T07:01:45;99225.22;;;23.99;38.38
47154;BME280;32907;41.412;2.164;2022-09-29T07:04:19;99275.16;;;24.37;38.56
47154;BME280;32907;41.412;2.164;2022-09-29T07:06:48;99271.25;;;24.38;38.53
47154;BME280;32907;41.412;2.164;2022-09-29T07:09:16;99266.56;;;24.38;38.96
47154;BME280;32907;41.412;2.164;2022-09-29T07:11:47;99215.13;;;24.04;39.76
47154;BME280;32907;41.412;2.164;2022-09-29T07:14:16;99247.34;;;24.22;39.22
47154;BME280;32907;41.412;2.164;2022-09-29T07:16:44;99274.34;;;24.36;39.46
47154;BME280;32907;41.412;2.164;2022-09-29T07:19:16;99261.69;;;24.32;38.95
47154;BME280;32907;41.412;2.164;2022-09-29T07:21:46;99285.16;;;24.45;39.84
47154;BME280;32907;41.412;2.164;2022-09-29T07:24:14;99273.94;;;24.50;39.21
47154;BME280;32907;41.412;2.164;2022-09-29T07:26:42;99274.03;;;24.53;38.44
47154;BME280;32907;41.412;2.164;2022-09-29T07:29:10;99222.28;;;24.36;38.13
47154;BME280;32907;41.412;2.164;2022-09-29T07:31:43;99246.47;;;24.46;38.93
47154;BME280;32907;41.412;2.164;2022-09-29T07:34:19;99229.31;;;24.49;38.43
47154;BME280;32907;41.412;2.164;2022-09-29T07:36:48;99199.59;;;24.36;37.58
47154;BME280;32907;41.412;2.164;2022-09-29T07:39:19;99204.03;;;24.40;37.70
47154;BME280;32907;41.412;2.164;2022-09-29T07:41:48;99166.19;;;24.02;37.38
47154;BME280;32907;41.412;2.164;2022-09-29T07:44:16;99196.34;;;24.18;37.39
47154;BME280;32907;41.412;2.164;2022-09-29T07:46:44;99180.69;;;24.03;37.39
47154;BME280;32907;41.412;2.164;2022-09-29T07:49:12;99199.16;;;24.21;37.14
47154;BME280;32907;41.412;2.164;2022-09-29T07:51:39;99195.81;;;24.12;36.72
47154;BME280;32907;41.412;2.164;2022-09-29T07:54:08;99229.97;;;24.31;37.26
47154;BME280;32907;41.412;2.164;2022-09-29T07:56:36;99235.78;;;24.29;37.38
47154;BME280;32907;41.412;2.164;2022-09-29T07:59:03;99221.56;;;24.23;37.60
47154;BME280;32907;41.412;2.164;2022-09-29T08:01:32;99170.13;;;23.89;38.32
47154;BME280;32907;41.412;2.164;2022-09-29T08:04:00;99251.81;;;24.43;38.38
47154;BME280;32907;41.412;2.164;2022-09-29T08:06:28;99201.41;;;24.16;38.50
47154;BME280;32907;41.412;2.164;2022-09-29T08:08:59;99228.41;;;24.45;38.72
47154;BME280;32907;41.412;2.164;2022-09-29T08:11:35;99212.63;;;24.26;38.38
47154;BME280;32907;41.412;2.164;2022-09-29T08:14:04;99210.78;;;24.31;38.45
47154;BME280;32907;41.412;2.164;2022-09-29T08:16:32;99189.38;;;24.20;37.98
47154;BME280;32907;41.412;2.164;2022-09-29T08:19:01;99231.25;;;24.49;38.78
47154;BME280;32907;41.412;2.164;2022-09-29T08:21:29;99175.59;;;24.17;38.59
47154;BME280;32907;41.412;2.164;2022-09-29T08:24:04;99203.56;;;24.38;38.04
47154;BME280;32907;41.412;2.164;2022-09-29T08:26:34;99226.19;;;24.51;38.53
47154;BME280;32907;41.412;2.164;2022-09-29T08:29:11;99205.69;;;24.45;38.20
47154;BME280;32907;41.412;2.164;2022-09-29T08:31:44;99172.44;;;24.31;38.13
47154;BME280;32907;41.412;2.164;2022-09-29T08:34:12;99185.28;;;24.42;37.77
47154;BME280;32907;41.412;2.164;2022-09-29T08:36:40;99132.22;;;24.19;38.29
47154;BME280;32907;41.412;2.164;2022-09-29T08:39:09;99189.59;;;24.59;38.35
47154;BME280;32907;41.412;2.164;2022-09-29T08:44:16;99163.09;;;24.63;38.46
47154;BME280;32907;41.412;2.164;2022-09-29T08:49:41;99182.97;;;24.60;38.58
47154;BME280;32907;41.412;2.164;2022-09-29T08:52:16;99189.44;;;24.52;37.69
47154;BME280;32907;41.412;2.164;2022-09-29T08:54:46;99194.72;;;24.45;37.90
47154;BME280;32907;41.412;2.164;2022-09-29T08:57:18;99209.31;;;24.49;37.79
47154;BME280;32907;41.412;2.164;2022-09-29T09:00:09;99212.44;;;24.63;37.87
47154;BME280;32907;41.412;2.164;2022-09-29T09:12:00;99204.88;;;24.44;37.26
47154;BME280;32907;41.412;2.164;2022-09-29T09:20:33;99205.44;;;24.50;37.98
47154;BME280;32907;41.412;2.164;2022-09-29T09:25:53;99209.50;;;24.40;37.33
47154;BME280;32907;41.412;2.164;2022-09-29T09:31:16;99237.72;;;24.57;36.85
47154;BME280;32907;41.412;2.164;2022-09-29T09:36:38;99234.97;;;24.57;37.55
47154;BME280;32907;41.412;2.164;2022-09-29T09:39:15;99209.38;;;24.37;37.92
47154;BME280;32907;41.412;2.164;2022-09-29T09:41:46;99198.22;;;24.29;37.92
47154;BME280;32907;41.412;2.164;2022-09-29T09:44:21;99246.72;;;24.57;37.66
47154;BME280;32907;41.412;2.164;2022-09-29T09:47:55;99219.50;;;24.48;37.83
47154;BME280;32907;41.412;2.164;2022-09-29T09:49:56;99254.84;;;24.69;37.96
47154;BME280;32907;41.412;2.164;2022-09-29T09:52:36;99242.09;;;24.61;37.72
47154;BME280;32907;41.412;2.164;2022-09-29T09:55:12;99256.78;;;24.69;37.96
47154;BME280;32907;41.412;2.164;2022-09-29T10:00:18;99226.91;;;24.48;37.67
47154;BME280;32907;41.412;2.164;2022-09-29T10:02:50;99271.75;;;24.71;37.52
47154;BME280;32907;41.412;2.164;2022-09-29T10:05:21;99269.03;;;24.71;37.67
47154;BME280;32907;41.412;2.164;2022-09-29T10:07:54;99272.09;;;24.70;37.07
47154;BME280;32907;41.412;2.164;2022-09-29T10:10:24;99273.59;;;24.67;37.04
47154;BME280;32907;41.412;2.164;2022-09-29T10:13:13;99239.03;;;24.47;35.91
47154;BME280;32907;41.412;2.164;2022-09-29T10:18:35;99243.53;;;24.55;36.70
47154;BME280;32907;41.412;2.164;2022-09-29T10:21:04;99185.91;;;24.08;36.64
47154;BME280;32907;41.412;2.164;2022-09-29T10:23:53;99258.91;;;24.44;36.71
47154;BME280;32907;41.412;2.164;2022-09-29T10:26:28;99261.56;;;24.56;36.78
47154;BME280;32907;41.412;2.164;2022-09-29T10:29:23;99265.91;;;24.57;37.26
47154;BME280;32907;41.412;2.164;2022-09-29T10:32:05;99272.53;;;24.56;36.92
47154;BME280;32907;41.412;2.164;2022-09-29T10:34:36;99196.09;;;24.07;37.59
47154;BME280;32907;41.412;2.164;2022-09-29T10:39:45;99243.72;;;24.46;37.52
47154;BME280;32907;41.412;2.164;2022-09-29T10:42:34;99257.75;;;24.61;37.35
47154;BME280;32907;41.412;2.164;2022-09-29T10:47:39;99202.09;;;24.28;37.34
47154;BME280;32907;41.412;2.164;2022-09-29T10:50:20;99259.03;;;24.63;37.48
47154;BME280;32907;41.412;2.164;2022-09-29T10:52:55;99255.13;;;24.64;37.00
47154;BME280;32907;41.412;2.164;2022-09-29T10:55:32;99204.69;;;24.37;37.38
47154;BME280;32907;41.412;2.164;2022-09-29T10:58:22;99197.28;;;24.38;37.16
47154;BME280;32907;41.412;2.164;2022-09-29T11:01:13;99253.25;;;24.68;37.61
47154;BME280;32907;41.412;2.164;2022-09-29T11:03:56;99216.81;;;24.52;37.00
47154;BME280;32907;41.412;2.164;2022-09-29T11:06:32;99232.22;;;24.72;37.45
47154;BME280;32907;41.412;2.164;2022-09-29T11:09:02;99243.19;;;24.72;37.41
47154;BME280;32907;41.412;2.164;2022-09-29T11:11:33;99250.25;;;24.73;37.47
47154;BME280;32907;41.412;2.164;2022-09-29T11:14:01;99222.31;;;24.52;37.11
47154;BME280;32907;41.412;2.164;2022-09-29T11:16:36;99211.69;;;24.50;37.20
47154;BME280;32907;41.412;2.164;2022-09-29T11:30:08;99231.50;;;24.75;37.53
47154;BME280;32907;41.412;2.164;2022-09-29T11:35:54;99224.38;;;24.71;37.05
47154;BME280;32907;41.412;2.164;2022-09-29T11:38:34;99196.41;;;24.49;37.64
47154;BME280;32907;41.412;2.164;2022-09-29T11:41:40;99222.84;;;24.73;37.05
47154;BME280;32907;41.412;2.164;2022-09-29T11:44:45;99221.25;;;24.72;37.08
47154;BME280;32907;41.412;2.164;2022-09-29T11:47:22;99219.69;;;24.71;37.10
47154;BME280;32907;41.412;2.164;2022-09-29T11:50:35;99179.06;;;24.45;36.90
47154;BME280;32907;41.412;2.164;2022-09-29T11:56:00;99189.78;;;24.50;37.06
47154;BME280;32907;41.412;2.164;2022-09-29T12:13:01;99199.69;;;24.87;37.73
47154;BME280;32907;41.412;2.164;2022-09-29T12:15:35;99192.31;;;24.91;37.92
47154;BME280;32907;41.412;2.164;2022-09-29T12:18:20;99191.47;;;24.87;38.06
47154;BME280;32907;41.412;2.164;2022-09-29T12:20:52;99181.78;;;24.93;37.99
47154;BME280;32907;41.412;2.164;2022-09-29T12:23:22;99143.16;;;24.82;37.96
47154;BME280;32907;41.412;2.164;2022-09-29T12:25:58;99151.19;;;24.91;38.09
47154;BME280;32907;41.412;2.164;2022-09-29T12:28:36;99141.63;;;24.84;38.46
47154;BME280;32907;41.412;2.164;2022-09-29T12:31:34;99158.50;;;25.02;37.18
47154;BME280;32907;41.412;2.164;2022-09-29T12:34:31;99151.13;;;25.03;37.89
47154;BME280;32907;41.412;2.164;2022-09-29T12:37:14;99151.53;;;25.05;37.84
47154;BME280;32907;41.412;2.164;2022-09-29T12:42:46;99136.66;;;25.06;38.01
47154;BME280;32907;41.412;2.164;2022-09-29T12:45:49;99128.88;;;25.08;37.98
47154;BME280;32907;41.412;2.164;2022-09-29T12:56:57;99099.84;;;25.07;38.32
47154;BME280;32907;41.412;2.164;2022-09-29T13:14:03;99075.28;;;24.95;34.97
47154;BME280;32907;41.412;2.164;2022-09-29T13:16:51;99093.53;;;25.03;35.21
47154;BME280;32907;41.412;2.164;2022-09-29T13:25:26;99059.22;;;24.77;35.60
47154;BME280;32907;41.412;2.164;2022-09-29T13:27:57;99048.09;;;24.70;36.08
47154;BME280;32907;41.412;2.164;2022-09-29T13:30:28;99065.22;;;24.83;36.07
47154;BME280;32907;41.412;2.164;2022-09-29T13:33:13;99085.09;;;24.96;36.08
47154;BME280;32907;41.412;2.164;2022-09-29T13:35:45;99040.72;;;24.71;35.57
47154;BME280;32907;41.412;2.164;2022-09-29T13:38:17;99076.72;;;24.89;36.00
47154;BME280;32907;41.412;2.164;2022-09-29T13:46:43;99079.16;;;24.94;35.75
47154;BME280;32907;41.412;2.164;2022-09-29T13:51:45;99083.16;;;24.96;38.22
47154;BME280;32907;41.412;2.164;2022-09-29T13:59:26;99034.59;;;24.62;36.83
47154;BME280;32907;41.412;2.164;2022-09-29T14:01:55;99067.63;;;24.84;36.79
47154;BME280;32907;41.412;2.164;2022-09-29T14:07:48;99087.75;;;24.92;37.43
47154;BME280;32907;41.412;2.164;2022-09-29T14:13:30;99066.97;;;24.72;36.95
47154;BME280;32907;41.412;2.164;2022-09-29T14:21:13;99099.66;;;24.80;37.08
47154;BME280;32907;41.412;2.164;2022-09-29T14:23:59;99050.38;;;24.49;36.85
47154;BME280;32907;41.412;2.164;2022-09-29T14:26:46;99095.66;;;24.78;36.53
47154;BME280;32907;41.412;2.164;2022-09-29T14:29:33;99078.47;;;24.62;36.55
47154;BME280;32907;41.412;2.164;2022-09-29T14:32:16;99068.16;;;24.55;37.24
47154;BME280;32907;41.412;2.164;2022-09-29T14:34:45;99076.88;;;24.61;37.10
47154;BME280;32907;41.412;2.164;2022-09-29T14:37:18;99094.00;;;24.73;37.46
47154;BME280;32907;41.412;2.164;2022-09-29T14:39:47;99084.03;;;24.65;37.56
47154;BME280;32907;41.412;2.164;2022-09-29T14:42:34;99046.75;;;24.45;37.80
47154;BME280;32907;41.412;2.164;2022-09-29T14:45:03;99041.56;;;24.40;37.54
47154;BME280;32907;41.412;2.164;2022-09-29T14:48:00;99099.91;;;24.75;37.67
47154;BME280;32907;41.412;2.164;2022-09-29T14:50:59;99097.97;;;24.76;37.81
47154;BME280;32907;41.412;2.164;2022-09-29T15:02:17;99086.22;;;24.75;37.78
47154;BME280;32907;41.412;2.164;2022-09-29T15:04:46;99070.97;;;24.59;37.87
47154;BME280;32907;41.412;2.164;2022-09-29T15:07:17;99089.31;;;24.74;38.27
47154;BME280;32907;41.412;2.164;2022-09-29T15:09:55;99095.59;;;24.74;38.19
47154;BME280;32907;41.412;2.164;2022-09-29T15:12:28;99089.31;;;24.74;38.16
47154;BME280;32907;41.412;2.164;2022-09-29T15:14:57;99041.66;;;24.43;38.05
47154;BME280;32907;41.412;2.164;2022-09-29T15:20:42;99094.38;;;24.72;38.65
47154;BME280;32907;41.412;2.164;2022-09-29T15:26:17;99046.69;;;24.41;38.71
47154;BME280;32907;41.412;2.164;2022-09-29T15:28:46;99048.44;;;24.49;38.68
47154;BME280;32907;41.412;2.164;2022-09-29T15:31:25;99088.53;;;24.73;39.05
47154;BME280;32907;41.412;2.164;2022-09-29T15:33:54;99098.34;;;24.74;39.11
47154;BME280;32907;41.412;2.164;2022-09-29T15:36:23;99061.88;;;24.54;39.36
47154;BME280;32907;41.412;2.164;2022-09-29T15:38:54;99011.06;;;24.25;39.10
47154;BME280;32907;41.412;2.164;2022-09-29T15:41:25;99095.31;;;24.79;39.11
47154;BME280;32907;41.412;2.164;2022-09-29T15:44:02;99096.91;;;24.80;39.71
47154;BME280;32907;41.412;2.164;2022-09-29T15:46:47;99087.81;;;24.76;40.16
47154;BME280;32907;41.412;2.164;2022-09-29T15:49:23;99047.81;;;24.56;40.25
47154;BME280;32907;41.412;2.164;2022-09-29T15:52:12;99080.53;;;24.84;40.32
47154;BME280;32907;41.412;2.164;2022-09-29T15:54:41;99082.31;;;24.76;39.61
47154;BME280;32907;41.412;2.164;2022-09-29T16:03:20;99090.00;;;24.87;40.28
47154;BME280;32907;41.412;2.164;2022-09-29T16:06:16;99092.75;;;24.87;39.85
47154;BME280;32907;41.412;2.164;2022-09-29T16:08:48;99094.66;;;24.86;39.81
47154;BME280;32907;41.412;2.164;2022-09-29T16:11:20;99104.84;;;24.86;40.18
47154;BME280;32907;41.412;2.164;2022-09-29T16:14:34;99092.84;;;24.74;39.87
47154;BME280;32907;41.412;2.164;2022-09-29T16:16:45;99103.56;;;24.79;39.86
47154;BME280;32907;41.412;2.164;2022-09-29T16:19:19;99108.75;;;24.84;40.62
47154;BME280;32907;41.412;2.164;2022-09-29T16:21:51;99112.38;;;24.89;40.58
47154;BME280;32907;41.412;2.164;2022-09-29T16:24:20;99086.66;;;24.77;40.15
47154;BME280;32907;41.412;2.164;2022-09-29T16:26:51;99101.09;;;24.94;40.26
47154;BME280;32907;41.412;2.164;2022-09-29T16:29:32;99100.78;;;24.95;40.77
47154;BME280;32907;41.412;2.164;2022-09-29T16:32:34;99109.78;;;24.96;40.55
47154;BME280;32907;41.412;2.164;2022-09-29T16:41:18;99126.66;;;24.98;41.20
47154;BME280;32907;41.412;2.164;2022-09-29T16:43:47;99136.47;;;24.99;40.80
47154;BME280;32907;41.412;2.164;2022-09-29T16:46:19;99138.84;;;25.00;40.81
47154;BME280;32907;41.412;2.164;2022-09-29T16:48:48;99127.56;;;24.86;40.82
47154;BME280;32907;41.412;2.164;2022-09-29T16:51:19;99139.06;;;24.92;40.79
47154;BME280;32907;41.412;2.164;2022-09-29T16:54:05;99137.53;;;24.94;40.62